Time;durP1;ratioP1;P1;durP2;ratioP2;P2;SDS_P1;SDS_P2;PMS_P1;PMS_P2;Temp;Humidity;BMP_temperature;BMP_pressure;BME280_temperature;BME280_humidity;BME280_pressure;Samples;Min_cycle;Max_cycle;Signal;HPM_P1;HPM_P2
2022/10/05 04:18:26;;;;;;;20.75;9.00;;;;;;;4.82;100.00;101437.97;5574244;31;306761;-90
2022/10/05 04:25:38;;;;;;;16.90;8.90;;;;;;;4.79;100.00;101445.88;5495097;32;33780;-89
2022/10/05 04:28:53;;;;;;;18.45;9.50;;;;;;;4.82;100.00;101445.84;5485811;32;32171;-89
2022/10/05 04:32:14;;;;;;;15.27;9.20;;;;;;;4.86;100.00;101447.59;5486891;32;34150;-88
2022/10/05 04:35:49;;;;;;;13.85;8.52;;;;;;;4.87;100.00;101441.44;5489082;32;33836;-89
2022/10/05 04:42:50;;;;;;;12.48;7.60;;;;;;;4.94;100.00;101443.13;5509103;26;20097;-88
2022/10/05 04:46:18;;;;;;;13.88;8.23;;;;;;;5.03;100.00;101446.56;5509400;32;34292;-89
2022/10/05 05:04:40;;;;;;;13.35;7.57;;;;;;;5.18;100.00;101435.88;5519227;26;34004;-89
2022/10/05 05:08:11;;;;;;;12.95;7.85;;;;;;;5.24;100.00;101437.59;5503403;32;33507;-89
2022/10/05 05:11:46;;;;;;;18.37;8.10;;;;;;;5.25;100.00;101447.22;5503091;32;33476;-89
2022/10/05 05:15:17;;;;;;;17.30;7.95;;;;;;;5.32;100.00;101433.13;5478009;32;33759;-88
2022/10/05 05:18:44;;;;;;;14.50;8.37;;;;;;;5.37;100.00;101435.69;5497199;32;33972;-88
2022/10/05 05:22:14;;;;;;;19.02;8.27;;;;;;;5.45;100.00;101436.50;5503493;32;33824;-89
2022/10/05 05:25:35;;;;;;;15.07;7.82;;;;;;;5.47;100.00;101444.34;5504152;32;34268;-89
2022/10/05 05:29:00;;;;;;;15.85;7.97;;;;;;;5.53;100.00;101441.62;5479207;32;33772;-89
2022/10/05 05:32:34;;;;;;;15.45;8.88;;;;;;;5.53;100.00;101444.28;5485542;32;34528;-89
2022/10/05 05:36:20;;;;;;;15.27;8.57;;;;;;;5.58;100.00;101444.25;5490896;32;34280;-89
2022/10/05 05:39:59;;;;;;;15.00;9.30;;;;;;;5.61;100.00;101450.34;5473928;32;33502;-90
2022/10/05 05:43:34;;;;;;;16.35;9.02;;;;;;;5.70;100.00;101459.91;5480773;32;34335;-91
2022/10/05 06:05:37;;;;;;;15.30;9.15;;;;;;;6.40;100.00;101485.38;5470495;32;32986;-87
2022/10/05 06:08:52;;;;;;;18.23;8.55;;;;;;;6.52;100.00;101505.38;5437973;32;34878;-87
2022/10/05 06:12:04;;;;;;;15.25;9.18;;;;;;;6.65;100.00;101519.28;5467547;32;34164;-88
2022/10/05 06:15:23;;;;;;;12.98;9.50;;;;;;;6.80;100.00;101531.34;5471517;32;33569;-89
2022/10/05 06:18:30;;;;;;;16.52;9.18;;;;;;;7.10;100.00;101537.00;5536132;26;33026;-90
2022/10/05 06:22:02;;;;;;;12.50;9.00;;;;;;;7.26;100.00;101534.13;5492064;32;34327;-89
2022/10/05 06:25:11;;;;;;;15.35;9.35;;;;;;;7.37;100.00;101552.41;5497536;32;33585;-90
2022/10/05 06:28:15;;;;;;;13.13;8.55;;;;;;;7.45;100.00;101555.81;5480463;32;34054;-89
2022/10/05 06:39:21;;;;;;;12.40;8.45;;;;;;;7.70;100.00;101565.94;4435014;26;20108;-91
2022/10/05 06:42:28;;;;;;;12.05;8.73;;;;;;;7.80;100.00;101563.97;5491057;32;34980;-89
2022/10/05 06:45:58;;;;;;;15.68;9.52;;;;;;;7.81;100.00;101557.78;5495762;32;35092;-93
2022/10/05 06:49:29;;;;;;;16.48;9.80;;;;;;;7.95;100.00;101547.81;5491705;32;34182;-90
2022/10/05 06:52:54;;;;;;;16.25;9.43;;;;;;;8.18;100.00;101557.06;5497629;32;33925;-90
2022/10/05 06:55:57;;;;;;;;;;;;;;;8.42;100.00;101562.72;5489449;32;33925;-89
2022/10/05 06:59:15;;;;;;;12.07;8.63;;;;;;;8.69;100.00;101568.34;5491949;32;34374;-89
2022/10/05 07:02:46;;;;;;;13.18;7.95;;;;;;;8.83;100.00;101583.91;5501576;32;32779;-90
2022/10/05 07:05:49;;;;;;;;;;;;;;;9.05;100.00;101593.13;5490453;32;34410;-89
2022/10/05 07:09:18;;;;;;;12.25;8.15;;;;;;;9.14;100.00;101596.41;5489706;32;34795;-89
2022/10/05 07:12:55;;;;;;;13.15;8.60;;;;;;;10.07;100.00;101586.97;5500630;32;33080;-89
2022/10/05 07:16:10;;;;;;;14.95;7.97;;;;;;;10.81;100.00;101585.72;5490498;32;33493;-89
2022/10/05 07:19:40;;;;;;;11.38;7.90;;;;;;;10.55;100.00;101576.78;5491261;32;33948;-89
2022/10/05 07:22:54;;;;;;;10.65;8.00;;;;;;;10.81;100.00;101569.81;5491163;32;34003;-90
2022/10/05 07:26:29;;;;;;;12.07;8.25;;;;;;;11.80;100.00;101582.44;5477008;32;33013;-89
2022/10/05 07:29:46;;;;;;;10.90;7.68;;;;;;;13.18;96.08;101591.47;5480647;32;32558;-90
2022/10/05 07:47:46;;;;;;;10.18;6.12;;;;;;;25.60;37.88;101587.59;5508213;32;20100;-87
2022/10/05 07:51:09;;;;;;;9.20;6.28;;;;;;;27.11;34.10;101581.09;5508318;32;34253;-86
2022/10/05 07:58:03;;;;;;;;;;;;;;;26.84;35.17;101579.31;5508241;32;20335;-87
2022/10/05 08:01:28;;;;;;;10.93;6.82;;;;;;;26.55;34.71;101593.97;5495545;32;33030;-87
2022/10/05 08:04:50;;;;;;;9.93;7.07;;;;;;;29.18;30.96;101596.81;5508958;32;35242;-87
2022/10/05 08:08:04;;;;;;;10.02;7.12;;;;;;;30.81;27.55;101595.84;5507930;32;33349;-87
2022/10/05 08:11:18;;;;;;;11.70;7.80;;;;;;;29.97;29.16;101590.72;5509686;32;33954;-86
2022/10/05 08:14:50;;;;;;;12.82;8.23;;;;;;;30.90;28.09;101579.19;5510014;32;34484;-86
2022/10/05 08:18:04;;;;;;;9.63;7.47;;;;;;;27.61;32.17;101567.91;5508914;32;34301;-86
2022/10/05 08:21:10;;;;;;;11.65;7.85;;;;;;;25.20;36.51;101559.63;5509048;32;33937;-87
2022/10/05 08:24:50;;;;;;;10.60;8.85;;;;;;;26.84;34.34;101554.81;5511492;32;34803;-91
2022/10/05 08:28:07;;;;;;;12.03;8.93;;;;;;;26.28;34.76;101541.28;5508300;32;34451;-88
2022/10/05 08:31:19;;;;;;;11.32;8.60;;;;;;;24.75;37.82;101533.88;5496038;32;32872;-89
2022/10/05 08:34:28;;;;;;;12.95;9.18;;;;;;;26.78;34.82;101546.25;5495745;32;33597;-86
2022/10/05 08:37:36;;;;;;;12.52;9.30;;;;;;;24.19;38.19;101552.47;5508430;32;33769;-86
2022/10/05 08:40:55;;;;;;;16.95;9.60;;;;;;;22.64;42.47;101540.28;5499253;32;32297;-88
2022/10/05 08:44:16;;;;;;;14.02;10.32;;;;;;;21.19;48.48;101546.19;5497489;32;33886;-87
2022/10/05 08:47:41;;;;;;;16.75;10.05;;;;;;;19.31;52.89;101544.25;5496416;32;32615;-87
2022/10/05 08:51:20;;;;;;;15.40;10.05;;;;;;;19.07;55.69;101544.12;5509125;32;34405;-86
2022/10/05 08:54:28;;;;;;;20.10;10.25;;;;;;;18.09;58.39;101547.72;5506832;32;33981;-87
2022/10/05 08:57:55;;;;;;;16.65;10.05;;;;;;;17.33;60.94;101547.78;5513892;32;34140;-88
2022/10/05 09:01:17;;;;;;;18.73;11.02;;;;;;;16.39;67.05;101539.66;5511100;32;33792;-88
2022/10/05 09:04:29;;;;;;;13.85;9.55;;;;;;;16.21;66.59;101543.38;5533238;26;34073;-87
2022/10/05 09:08:07;;;;;;;14.80;7.80;;;;;;;16.76;67.06;101554.63;5513778;32;32596;-87
2022/10/05 09:11:23;;;;;;;12.00;6.55;;;;;;;16.77;65.82;101559.88;5513281;32;33682;-88
2022/10/05 09:14:48;;;;;;;13.75;7.80;;;;;;;17.29;60.92;101567.69;5500028;32;34110;-89
2022/10/05 09:18:56;;;;;;;12.98;8.07;;;;;;;17.55;57.79;101571.47;5518981;32;34301;-87
2022/10/05 09:22:18;;;;;;;18.45;8.77;;;;;;;17.79;58.81;101565.56;5497319;32;33771;-86
2022/10/05 09:25:40;;;;;;;14.87;9.48;;;;;;;17.67;59.76;101561.84;5510247;32;34413;-85
2022/10/05 09:29:28;;;;;;;15.52;10.23;;;;;;;17.88;59.12;101562.34;5511521;32;34258;-86
2022/10/05 09:33:09;;;;;;;15.02;9.68;;;;;;;17.96;58.33;101559.19;5510284;32;34233;-87
2022/10/05 09:36:30;;;;;;;19.52;9.43;;;;;;;18.02;57.89;101561.50;5508914;32;33395;-87
2022/10/05 09:39:46;;;;;;;15.07;9.02;;;;;;;18.20;58.23;101563.13;5509647;32;34296;-87
2022/10/05 09:43:22;;;;;;;19.05;10.45;;;;;;;18.95;54.87;101564.56;5497771;32;33707;-88
2022/10/05 09:46:53;;;;;;;15.50;9.32;;;;;;;18.74;55.37;101558.81;5513715;32;33763;-87
2022/10/05 09:50:08;;;;;;;15.15;8.38;;;;;;;18.58;56.09;101558.00;5496935;32;32617;-86
2022/10/05 09:53:31;;;;;;;12.95;8.40;;;;;;;18.41;56.81;101555.53;5509636;32;33605;-86
2022/10/05 09:56:59;;;;;;;12.48;8.23;;;;;;;18.91;54.91;101557.69;5503840;32;32537;-86
2022/10/05 10:00:54;;;;;;;12.02;7.40;;;;;;;18.29;57.55;101551.78;5507722;32;34981;-87
2022/10/05 10:04:39;;;;;;;9.90;6.68;;;;;;;18.21;58.05;101549.63;5504498;32;33660;-88
2022/10/05 10:08:03;;;;;;;13.73;7.68;;;;;;;18.67;55.64;101555.66;5533730;26;35085;-86
2022/10/05 10:11:12;;;;;;;12.32;7.55;;;;;;;19.59;53.87;101552.25;5535511;26;36610;-86
2022/10/05 10:14:35;;;;;;;12.73;7.28;;;;;;;19.90;53.15;101550.97;5511485;32;34939;-87
2022/10/05 10:18:02;;;;;;;9.18;7.20;;;;;;;20.45;52.51;101552.53;5513846;32;34085;-86
2022/10/05 10:21:23;;;;;;;11.88;6.95;;;;;;;21.07;49.36;101552.53;5516446;32;34176;-86
2022/10/05 10:24:44;;;;;;;9.63;6.55;;;;;;;21.72;48.70;101557.50;5509539;32;34016;-87
2022/10/05 10:28:26;;;;;;;11.40;7.18;;;;;;;22.39;45.96;101550.38;5510581;32;33905;-87
2022/10/05 10:31:38;;;;;;;9.60;7.15;;;;;;;24.61;39.38;101549.56;5513052;32;34403;-86
2022/10/05 10:35:07;;;;;;;9.40;7.20;;;;;;;22.84;42.11;101551.28;5513043;32;34250;-86
2022/10/05 10:38:30;;;;;;;10.45;6.85;;;;;;;21.24;47.05;101546.72;5497427;32;34038;-86
2022/10/05 10:41:55;;;;;;;11.57;7.82;;;;;;;20.24;51.90;101538.78;5510418;32;34212;-87
2022/10/05 10:45:15;;;;;;;16.92;7.57;;;;;;;19.31;52.59;101541.56;5496250;32;33933;-87
2022/10/05 10:48:18;;;;;;;12.77;7.05;;;;;;;18.79;56.65;101549.47;5498395;32;34049;-88
2022/10/05 10:51:49;;;;;;;10.18;6.87;;;;;;;18.99;56.67;101544.59;5510494;32;32419;-87
2022/10/05 10:54:57;;;;;;;14.77;7.30;;;;;;;20.34;51.72;101542.53;5506528;32;34053;-87
2022/10/05 10:58:38;;;;;;;10.35;7.15;;;;;;;21.49;47.16;101554.72;5496018;32;32689;-86
2022/10/05 11:02:18;;;;;;;13.40;7.62;;;;;;;19.55;52.11;101550.78;5510577;32;32778;-86
2022/10/05 11:05:55;;;;;;;11.18;6.78;;;;;;;19.14;55.10;101553.50;5505868;32;32553;-87
2022/10/05 11:09:16;;;;;;;10.55;6.82;;;;;;;18.66;56.64;101545.87;5525079;32;35971;-88
2022/10/05 11:12:21;;;;;;;;;;;;;;;18.59;57.41;101548.97;5525322;32;34870;-86
2022/10/05 11:15:43;;;;;;;10.77;7.45;;;;;;;18.46;57.84;101548.03;5519974;32;35297;-84
2022/10/05 11:18:49;;;;;;;10.32;7.82;;;;;;;19.10;56.93;101536.69;5519739;32;34388;-86
2022/10/05 11:22:18;;;;;;;12.95;7.95;;;;;;;19.39;56.14;101536.56;5507984;32;34584;-85
2022/10/05 11:25:45;;;;;;;10.88;7.90;;;;;;;20.44;52.76;101548.09;5507746;32;34970;-85
2022/10/05 11:29:05;;;;;;;10.63;7.62;;;;;;;20.06;53.99;101533.75;5500443;32;32771;-87
2022/10/05 11:32:30;;;;;;;13.48;7.82;;;;;;;19.51;55.86;101531.28;5507122;32;34648;-87
2022/10/05 11:35:56;;;;;;;13.05;8.18;;;;;;;19.12;57.10;101521.31;5510637;32;33871;-87
2022/10/05 11:39:10;;;;;;;10.38;8.48;;;;;;;18.83;58.65;101516.06;5496147;32;32658;-87
2022/10/05 11:42:31;;;;;;;12.40;8.70;;;;;;;18.75;58.81;101521.06;5507225;32;32881;-88
2022/10/05 11:49:52;;;;;;;12.07;8.82;;;;;;;18.55;61.26;101514.31;5562123;26;20107;-88
2022/10/05 11:52:59;;;;;;;;;;;;;;;18.82;60.17;101511.63;5510804;32;33811;-88
2022/10/05 11:56:22;;;;;;;16.52;9.27;;;;;;;18.65;61.03;101507.38;5495816;32;33196;-87
2022/10/05 11:59:52;;;;;;;14.85;9.90;;;;;;;18.77;62.07;101494.97;5501911;32;35253;-91
2022/10/05 12:03:32;;;;;;;15.68;9.93;;;;;;;18.88;61.35;101496.94;5506028;32;33975;-87
2022/10/05 12:06:57;;;;;;;13.93;10.05;;;;;;;18.68;63.18;101491.06;5509371;32;35362;-87
2022/10/05 12:10:37;;;;;;;15.30;9.25;;;;;;;18.27;64.93;101491.97;5495674;32;32464;-87
2022/10/05 12:14:16;;;;;;;14.68;9.32;;;;;;;18.54;64.57;101489.28;5494991;32;34091;-87
2022/10/05 12:17:50;;;;;;;13.32;9.30;;;;;;;18.35;65.05;101492.31;5482588;32;32723;-90
2022/10/05 12:21:21;;;;;;;10.18;8.43;;;;;;;18.28;65.82;101497.25;5498360;32;35005;-88
2022/10/05 12:24:35;;;;;;;14.87;8.63;;;;;;;18.46;65.05;101488.94;5502307;32;33376;-88
2022/10/05 12:27:44;;;;;;;12.88;8.50;;;;;;;18.55;65.20;101493.69;5507252;26;32610;-87
2022/10/05 12:31:25;;;;;;;16.83;8.63;;;;;;;18.58;65.56;101481.88;5507603;32;34518;-87
2022/10/05 12:34:57;;;;;;;12.25;7.90;;;;;;;18.17;65.91;101481.78;5496972;32;33548;-86
2022/10/05 12:38:23;;;;;;;11.95;7.35;;;;;;;18.15;66.50;101475.66;5492656;32;33435;-86
2022/10/05 12:41:37;;;;;;;9.43;7.12;;;;;;;18.21;65.65;101466.38;5504397;32;32778;-90
2022/10/05 12:45:03;;;;;;;12.32;7.15;;;;;;;18.31;65.75;101456.72;5509329;32;34519;-87
2022/10/05 12:48:32;;;;;;;13.62;7.53;;;;;;;18.39;64.07;101452.69;5512362;32;33932;-85
2022/10/05 12:51:50;;;;;;;13.18;7.75;;;;;;;18.49;64.32;101469.03;5522298;32;34955;-88
2022/10/05 12:55:12;;;;;;;11.43;7.68;;;;;;;18.43;64.96;101456.91;5517533;32;34713;-87
2022/10/05 12:58:27;;;;;;;10.07;7.57;;;;;;;18.54;63.49;101448.13;5510581;32;33947;-85
2022/10/05 13:01:42;;;;;;;14.93;7.50;;;;;;;18.15;64.83;101446.13;5510838;32;34501;-87
2022/10/05 13:04:54;;;;;;;9.43;6.78;;;;;;;18.41;63.71;101453.47;5511403;32;34084;-85
2022/10/05 13:08:25;;;;;;;10.93;6.40;;;;;;;18.44;63.48;101459.50;5503720;32;33221;-84
2022/10/05 13:11:37;;;;;;;10.40;6.20;;;;;;;18.10;62.92;101468.88;5518186;32;34007;-86
2022/10/05 13:15:02;;;;;;;8.85;5.78;;;;;;;17.72;64.16;101454.22;5507677;32;33766;-85
2022/10/05 13:18:48;;;;;;;11.12;5.70;;;;;;;17.71;64.05;101453.34;5491743;32;33726;-85
2022/10/05 13:22:34;;;;;;;10.20;5.15;;;;;;;17.57;62.97;101454.22;5509979;32;33918;-85
2022/10/05 13:25:52;;;;;;;9.82;4.60;;;;;;;17.62;62.94;101446.75;5487720;32;32478;-85
2022/10/05 13:29:01;;;;;;;7.60;4.40;;;;;;;17.87;61.00;101453.25;5497084;32;33534;-85
2022/10/05 13:32:32;;;;;;;6.35;3.65;;;;;;;17.97;59.82;101450.84;5496677;32;32104;-89
2022/10/05 13:35:56;;;;;;;3.30;3.00;;;;;;;17.77;59.63;101444.91;5509650;32;34642;-85
2022/10/05 13:38:58;;;;;;;6.82;3.42;;;;;;;17.80;59.04;101446.53;5521000;32;34494;-86
2022/10/05 13:42:09;;;;;;;5.72;3.30;;;;;;;17.86;59.57;101437.25;5511507;32;35387;-85
2022/10/05 13:45:21;;;;;;;5.73;3.53;;;;;;;17.86;59.54;101435.41;5520256;32;34325;-85
2022/10/05 13:48:55;;;;;;;5.93;3.90;;;;;;;17.94;59.49;101440.28;5511221;32;33888;-85
2022/10/05 13:52:22;;;;;;;6.87;3.60;;;;;;;17.95;59.38;101444.69;5503481;32;32901;-85
2022/10/05 13:55:46;;;;;;;4.12;3.72;;;;;;;17.90;61.02;101436.06;5502785;32;34986;-85
2022/10/05 13:59:26;;;;;;;7.05;4.03;;;;;;;17.83;59.44;101437.44;5511156;32;34703;-86
2022/10/05 14:02:37;;;;;;;6.12;4.10;;;;;;;17.70;61.52;101440.87;5502597;32;35903;-86
2022/10/05 14:05:53;;;;;;;6.30;4.20;;;;;;;17.76;61.45;101440.50;5494463;32;33427;-85
2022/10/05 14:08:59;;;;;;;6.30;3.87;;;;;;;17.65;62.17;101443.00;5506106;32;34579;-86
2022/10/05 14:12:03;;;;;;;6.72;3.47;;;;;;;17.79;61.88;101442.12;5508103;32;33978;-86
2022/10/05 14:15:27;;;;;;;4.93;3.78;;;;;;;17.81;62.57;101444.72;5508888;32;34065;-85
2022/10/05 14:18:35;;;;;;;6.20;3.78;;;;;;;17.63;62.74;101445.81;5509449;32;33879;-86
2022/10/05 14:22:16;;;;;;;7.15;3.95;;;;;;;17.94;62.16;101442.12;5509533;32;34273;-86
2022/10/05 14:25:19;;;;;;;7.97;3.95;;;;;;;18.01;61.08;101449.66;5480832;32;32843;-85
2022/10/05 14:28:30;;;;;;;8.25;3.95;;;;;;;17.87;60.63;101441.66;5495310;32;33640;-84
2022/10/05 14:31:35;;;;;;;7.87;4.10;;;;;;;17.87;61.13;101444.34;5494767;32;32322;-85
2022/10/05 14:35:24;;;;;;;10.75;4.18;;;;;;;17.63;61.48;101432.38;5509053;32;33866;-86
2022/10/05 14:38:49;;;;;;;7.30;3.80;;;;;;;17.85;62.41;101439.06;5488928;32;32393;-87
2022/10/05 14:41:51;;;;;;;7.43;4.00;;;;;;;17.76;61.94;101443.19;5508364;32;34006;-87
2022/10/05 14:44:59;;;;;;;7.87;4.57;;;;;;;17.69;63.02;101446.38;5517531;32;34039;-87
2022/10/05 14:48:10;;;;;;;4.75;4.22;;;;;;;17.74;62.03;101445.12;5515353;32;34331;-87
2022/10/05 14:51:27;;;;;;;7.15;4.70;;;;;;;17.62;64.26;101438.72;5513814;32;33895;-88
2022/10/05 14:54:40;;;;;;;6.45;4.50;;;;;;;17.61;64.39;101444.16;5511956;32;34895;-88
2022/10/05 14:58:14;;;;;;;6.12;4.43;;;;;;;17.39;64.45;101432.06;5510144;32;33874;-88
2022/10/05 15:01:26;;;;;;;9.10;4.78;;;;;;;17.16;64.89;101428.12;5509438;32;34255;-88
2022/10/05 15:04:35;;;;;;;7.90;4.43;;;;;;;17.03;65.39;101418.16;5512563;27;34001;-88
2022/10/05 15:19:36;;;;;;;6.43;4.12;;;;;;;16.81;65.99;101421.25;1773220;26;20113;-88
